createdAt,value
2023-05-15T00:00:46.024Z,5.40
2023-05-15T00:03:13.300Z,4.82
2023-05-15T00:05:40.883Z,4.60
2023-05-15T00:08:08.025Z,4.50
2023-05-15T00:10:35.174Z,4.80
2023-05-15T00:13:02.362Z,4.63
2023-05-15T00:15:29.661Z,4.57
2023-05-15T00:17:56.961Z,4.30
2023-05-15T00:20:24.234Z,4.75
2023-05-15T00:22:51.377Z,4.22
2023-05-15T00:25:19.642Z,4.60
2023-05-15T00:27:47.132Z,4.43
2023-05-15T00:30:14.796Z,4.13
2023-05-15T00:32:42.031Z,3.90
2023-05-15T00:35:09.398Z,4.20
2023-05-15T00:37:36.606Z,4.60
2023-05-15T00:40:04.591Z,4.97
2023-05-15T00:42:32.661Z,5.15
2023-05-15T00:45:01.944Z,4.15
2023-05-15T00:47:29.711Z,4.28
2023-05-15T00:49:57.752Z,4.28
2023-05-15T00:52:24.978Z,4.80
2023-05-15T00:54:52.137Z,4.93
2023-05-15T00:57:19.685Z,4.25
2023-05-15T00:59:47.460Z,4.38
2023-05-15T01:02:15.093Z,4.90
2023-05-15T01:04:42.480Z,4.15
2023-05-15T01:07:09.654Z,4.03
2023-05-15T01:09:37.756Z,4.50
2023-05-15T01:12:05.803Z,4.20
2023-05-15T01:14:32.958Z,4.05
2023-05-15T01:17:00.138Z,4.22
2023-05-15T01:19:27.382Z,4.38
2023-05-15T01:22:03.960Z,4.43
2023-05-15T01:24:37.300Z,4.03
2023-05-15T01:27:16.412Z,4.40
2023-05-15T01:30:03.668Z,3.90
2023-05-15T01:32:42.989Z,3.85
2023-05-15T01:35:13.272Z,3.85
2023-05-15T01:37:42.096Z,3.85
2023-05-15T01:40:10.995Z,3.90
2023-05-15T01:42:41.126Z,4.60
2023-05-15T01:45:10.316Z,4.35
2023-05-15T01:47:40.234Z,3.97
2023-05-15T01:50:07.948Z,4.10
2023-05-15T01:52:35.887Z,3.60
2023-05-15T01:55:03.562Z,3.83
2023-05-15T01:57:31.856Z,3.58
2023-05-15T01:59:59.733Z,3.22
2023-05-15T02:02:27.935Z,3.53
2023-05-15T02:04:55.608Z,3.72
2023-05-15T02:07:23.072Z,3.70
2023-05-15T02:09:51.890Z,3.63
2023-05-15T02:12:19.190Z,3.92
2023-05-15T02:14:47.554Z,4.30
2023-05-15T02:17:15.218Z,3.65
2023-05-15T02:19:42.462Z,3.63
2023-05-15T02:22:10.140Z,3.88
2023-05-15T02:24:37.363Z,3.60
2023-05-15T02:27:16.833Z,4.40
2023-05-15T02:29:56.303Z,3.60
2023-05-15T02:32:28.111Z,4.07
2023-05-15T02:35:08.417Z,3.67
2023-05-15T02:37:36.741Z,4.00
2023-05-15T02:40:06.905Z,3.40
2023-05-15T02:42:34.486Z,3.60
2023-05-15T02:45:02.295Z,3.55
2023-05-15T02:47:30.512Z,3.65
2023-05-15T02:49:58.154Z,3.38
2023-05-15T02:52:25.609Z,3.60
2023-05-15T02:54:53.238Z,3.40
2023-05-15T02:57:20.553Z,3.72
2023-05-15T02:59:47.723Z,3.33
2023-05-15T03:02:14.935Z,4.07
2023-05-15T03:04:42.656Z,3.40
2023-05-15T03:07:09.819Z,3.63
2023-05-15T03:09:37.018Z,3.35
2023-05-15T03:12:04.226Z,3.20
2023-05-15T03:14:31.425Z,3.17
2023-05-15T03:16:58.614Z,3.33
2023-05-15T03:19:25.862Z,3.53
2023-05-15T03:21:53.160Z,4.28
2023-05-15T03:24:20.976Z,3.10
2023-05-15T03:26:48.172Z,3.90
2023-05-15T03:29:15.594Z,3.00
2023-05-15T03:31:43.002Z,3.70
2023-05-15T03:34:10.301Z,3.58
2023-05-15T03:36:37.457Z,3.33
2023-05-15T03:39:04.940Z,3.25
2023-05-15T03:41:32.169Z,3.65
2023-05-15T03:43:59.318Z,3.08
2023-05-15T03:46:26.549Z,3.20
2023-05-15T03:48:54.768Z,3.53
2023-05-15T03:51:21.963Z,3.17
2023-05-15T03:53:49.110Z,3.35
2023-05-15T03:56:16.413Z,3.13
2023-05-15T03:58:43.584Z,3.42
2023-05-15T04:01:10.769Z,3.25
2023-05-15T04:03:37.967Z,3.10
2023-05-15T04:06:05.431Z,3.28
2023-05-15T04:08:32.616Z,3.55
2023-05-15T04:10:59.863Z,2.67
2023-05-15T04:13:27.034Z,3.20
2023-05-15T04:15:55.157Z,2.83
2023-05-15T04:18:22.339Z,3.10
2023-05-15T04:20:49.600Z,3.33
2023-05-15T04:23:16.750Z,3.13
2023-05-15T04:25:46.591Z,2.90
2023-05-15T04:28:14.088Z,3.20
2023-05-15T04:30:41.673Z,3.03
2023-05-15T04:33:08.955Z,3.05
2023-05-15T04:35:36.181Z,2.60
2023-05-15T04:38:03.352Z,2.70
2023-05-15T04:40:30.633Z,3.25
2023-05-15T04:42:59.025Z,3.30
2023-05-15T04:45:26.336Z,2.72
2023-05-15T04:47:53.831Z,3.00
2023-05-15T04:50:21.044Z,3.20
2023-05-15T04:52:48.527Z,3.10
2023-05-15T04:55:15.718Z,3.17
2023-05-15T04:57:42.847Z,3.92
2023-05-15T05:00:11.988Z,3.60
2023-05-15T05:02:40.011Z,2.83
2023-05-15T05:05:07.855Z,3.03
2023-05-15T05:07:35.493Z,3.30
2023-05-15T05:10:03.008Z,3.13
2023-05-15T05:12:30.162Z,3.25
2023-05-15T05:14:57.373Z,2.90
2023-05-15T05:17:24.685Z,3.35
2023-05-15T05:19:51.927Z,3.20
2023-05-15T05:22:19.091Z,3.20
2023-05-15T05:24:46.238Z,2.90
2023-05-15T05:27:13.508Z,3.20
2023-05-15T05:29:40.868Z,3.90
2023-05-15T05:32:08.689Z,4.82
2023-05-15T05:34:35.941Z,4.68
2023-05-15T05:37:03.135Z,4.35
2023-05-15T05:39:30.459Z,4.72
2023-05-15T05:41:57.659Z,5.93
2023-05-15T05:44:24.810Z,6.22
2023-05-15T05:46:52.927Z,6.88
2023-05-15T05:49:20.125Z,7.82
2023-05-15T05:51:47.378Z,6.22
2023-05-15T05:54:15.047Z,5.95
2023-05-15T05:56:43.089Z,5.90
2023-05-15T05:59:10.681Z,5.60
2023-05-15T06:01:38.018Z,4.97
2023-05-15T06:04:05.365Z,5.00
2023-05-15T06:06:32.612Z,4.85
2023-05-15T06:09:00.069Z,5.43
2023-05-15T06:11:27.315Z,4.82
2023-05-15T06:13:54.498Z,5.57
2023-05-15T06:16:22.289Z,7.30
2023-05-15T06:18:49.544Z,6.20
2023-05-15T06:21:16.721Z,5.55
2023-05-15T06:23:43.945Z,6.07
2023-05-15T06:26:11.198Z,5.43
2023-05-15T06:28:38.385Z,5.35
2023-05-15T06:31:06.105Z,5.28
2023-05-15T06:33:33.326Z,4.40
2023-05-15T06:36:00.840Z,5.20
2023-05-15T06:38:27.993Z,5.05
2023-05-15T06:40:55.164Z,4.88
2023-05-15T06:43:22.321Z,4.93
2023-05-15T06:45:50.332Z,4.35
2023-05-15T06:48:17.625Z,4.68
2023-05-15T06:50:44.845Z,4.45
2023-05-15T06:53:14.398Z,4.18
2023-05-15T06:55:41.826Z,4.85
2023-05-15T06:58:08.969Z,4.22
2023-05-15T07:00:36.117Z,4.38
2023-05-15T07:03:03.364Z,4.30
2023-05-15T07:05:30.715Z,4.50
2023-05-15T07:07:57.976Z,4.30
2023-05-15T07:10:25.460Z,4.47
2023-05-15T07:12:52.931Z,4.03
2023-05-15T07:15:20.139Z,3.67
2023-05-15T07:17:47.381Z,3.72
2023-05-15T07:20:14.622Z,4.10
2023-05-15T07:22:54.903Z,4.20
2023-05-15T07:25:23.591Z,3.60
2023-05-15T07:27:51.060Z,3.90
2023-05-15T07:30:20.145Z,3.70
2023-05-15T07:32:47.500Z,3.65
2023-05-15T07:35:14.758Z,3.60
2023-05-15T07:37:42.007Z,3.72
2023-05-15T07:40:09.468Z,3.65
2023-05-15T07:42:36.677Z,3.78
2023-05-15T07:45:03.866Z,3.30
2023-05-15T07:47:31.073Z,3.38
2023-05-15T07:49:58.310Z,3.40
2023-05-15T07:52:25.473Z,3.40
2023-05-15T07:54:52.652Z,3.40
2023-05-15T07:57:19.867Z,3.55
2023-05-15T07:59:47.069Z,3.10
2023-05-15T08:02:14.354Z,2.92
2023-05-15T08:04:41.639Z,2.97
2023-05-15T08:07:08.829Z,3.20
2023-05-15T08:09:35.980Z,3.35
2023-05-15T08:12:23.555Z,3.38
2023-05-15T08:14:51.395Z,2.90
2023-05-15T08:17:19.454Z,3.05
2023-05-15T08:19:50.359Z,3.70
2023-05-15T08:22:17.661Z,3.05
2023-05-15T08:24:44.988Z,2.67
2023-05-15T08:27:12.503Z,3.22
2023-05-15T08:29:40.433Z,2.70
2023-05-15T08:32:08.481Z,2.40
2023-05-15T08:34:35.780Z,2.72
2023-05-15T08:37:02.964Z,2.75
2023-05-15T08:39:30.120Z,2.50
2023-05-15T08:41:58.965Z,2.80
2023-05-15T08:44:26.251Z,3.05
2023-05-15T08:46:54.457Z,2.92
2023-05-15T08:49:46.158Z,2.50
2023-05-15T08:52:13.368Z,2.50
2023-05-15T08:54:41.648Z,2.60
2023-05-15T08:57:09.776Z,2.95
2023-05-15T08:59:37.736Z,2.97
2023-05-15T09:02:05.177Z,2.85
2023-05-15T09:04:32.711Z,3.00
2023-05-15T09:07:00.156Z,3.38
2023-05-15T09:09:28.139Z,2.65
2023-05-15T09:11:55.506Z,2.88
2023-05-15T09:14:22.704Z,2.30
2023-05-15T09:16:51.134Z,3.15
2023-05-15T09:19:20.258Z,2.95
2023-05-15T09:21:47.550Z,2.42
2023-05-15T09:24:24.964Z,2.78
2023-05-15T09:27:06.287Z,2.70
2023-05-15T09:29:34.377Z,2.85
2023-05-15T09:32:05.579Z,2.70
2023-05-15T09:34:33.767Z,2.63
2023-05-15T09:37:02.563Z,2.92
2023-05-15T09:39:29.772Z,2.78
2023-05-15T09:42:06.813Z,2.30
2023-05-15T09:44:34.819Z,2.53
2023-05-15T09:47:02.521Z,2.42
2023-05-15T09:49:31.587Z,2.47
2023-05-15T09:52:01.052Z,2.97
2023-05-15T09:54:30.085Z,2.40
2023-05-15T09:56:57.721Z,2.30
2023-05-15T09:59:24.960Z,2.50
2023-05-15T10:01:52.796Z,2.40
2023-05-15T10:04:20.040Z,3.05
2023-05-15T10:06:48.201Z,2.47
2023-05-15T10:09:15.818Z,2.67
2023-05-15T10:11:44.585Z,2.15
2023-05-15T10:14:13.120Z,2.00
2023-05-15T10:16:41.455Z,2.47
2023-05-15T10:19:10.718Z,2.50
2023-05-15T10:21:39.096Z,2.22
2023-05-15T10:24:07.019Z,2.20
2023-05-15T10:26:38.084Z,2.67
2023-05-15T10:29:09.981Z,2.80
2023-05-15T10:31:37.375Z,2.40
2023-05-15T10:34:05.187Z,2.47
2023-05-15T10:36:33.109Z,2.15
2023-05-15T10:39:07.034Z,2.00
2023-05-15T10:41:36.411Z,1.90
2023-05-15T10:44:03.717Z,2.30
2023-05-15T10:46:32.143Z,2.30
2023-05-15T10:49:00.651Z,2.30
2023-05-15T10:51:31.765Z,2.35
2023-05-15T10:54:00.785Z,2.13
2023-05-15T10:56:30.665Z,2.13
2023-05-15T10:58:58.128Z,1.90
2023-05-15T11:01:25.598Z,2.28
2023-05-15T11:03:54.668Z,1.60
2023-05-15T11:06:32.241Z,1.95
2023-05-15T11:09:18.255Z,1.60
2023-05-15T11:11:58.823Z,1.80
2023-05-15T11:14:26.604Z,1.65
2023-05-15T11:16:54.026Z,1.60
2023-05-15T11:19:33.264Z,1.83
2023-05-15T11:22:01.304Z,1.52
2023-05-15T11:24:29.112Z,1.50
2023-05-15T11:27:02.933Z,1.83
2023-05-15T11:29:31.430Z,1.88
2023-05-15T11:31:59.659Z,1.63
2023-05-15T11:34:30.772Z,1.85
2023-05-15T11:37:00.054Z,1.60
2023-05-15T11:39:27.656Z,1.63
2023-05-15T11:41:55.323Z,1.70
2023-05-15T11:44:23.631Z,1.48
2023-05-15T11:46:51.587Z,1.55
2023-05-15T11:49:19.928Z,1.67
2023-05-15T11:51:49.069Z,1.55
2023-05-15T11:54:17.064Z,1.67
2023-05-15T11:56:44.908Z,1.65
2023-05-15T11:59:15.175Z,2.20
2023-05-15T12:01:43.068Z,3.83
2023-05-15T12:04:16.722Z,4.70
2023-05-15T12:06:44.788Z,4.78
2023-05-15T12:09:27.193Z,5.40
2023-05-15T12:11:55.411Z,4.70
2023-05-15T12:14:28.942Z,4.80
2023-05-15T12:17:02.763Z,4.90
2023-05-15T12:19:30.119Z,5.22
2023-05-15T12:21:57.284Z,6.50
2023-05-15T12:24:27.407Z,7.82
2023-05-15T12:26:57.203Z,14.00
2023-05-15T12:29:24.950Z,11.20
2023-05-15T12:31:54.052Z,9.13
2023-05-15T12:34:21.869Z,7.88
2023-05-15T12:36:49.108Z,6.00
2023-05-15T12:39:16.411Z,6.30
2023-05-15T12:41:46.723Z,6.40
2023-05-15T12:44:18.450Z,6.38
2023-05-15T12:46:46.417Z,5.32
2023-05-15T12:49:13.704Z,5.65
2023-05-15T12:51:44.338Z,5.00
2023-05-15T12:54:18.665Z,5.25
2023-05-15T12:56:46.043Z,5.25
2023-05-15T12:59:13.259Z,5.30
2023-05-15T13:01:42.199Z,5.53
2023-05-15T13:04:09.989Z,4.97
2023-05-15T13:06:46.190Z,5.20
2023-05-15T13:09:14.250Z,4.95
2023-05-15T13:11:45.396Z,5.25
2023-05-15T13:14:17.520Z,4.55
2023-05-15T13:16:46.654Z,4.28
2023-05-15T13:19:14.221Z,4.22
2023-05-15T13:21:41.390Z,3.60
2023-05-15T13:24:10.761Z,3.42
2023-05-15T13:26:38.059Z,3.78
2023-05-15T13:29:05.331Z,4.68
2023-05-15T13:31:32.648Z,4.20
2023-05-15T13:33:59.938Z,4.05
2023-05-15T13:36:27.118Z,4.43
2023-05-15T13:38:54.488Z,4.00
2023-05-15T13:41:22.476Z,3.83
2023-05-15T13:43:49.749Z,3.72
2023-05-15T13:46:17.013Z,3.88
2023-05-15T13:48:44.240Z,4.28
2023-05-15T13:51:11.413Z,3.80
2023-05-15T13:53:38.618Z,4.40
2023-05-15T13:56:06.069Z,4.07
2023-05-15T13:58:33.283Z,4.05
2023-05-15T14:01:00.488Z,4.38
2023-05-15T14:03:27.802Z,4.65
2023-05-15T14:05:55.103Z,4.55
2023-05-15T14:08:22.277Z,4.00
2023-05-15T14:10:49.453Z,4.07
2023-05-15T14:13:16.591Z,4.57
2023-05-15T14:15:43.727Z,3.55
2023-05-15T14:18:10.911Z,3.95
2023-05-15T14:20:38.089Z,3.50
2023-05-15T14:23:05.285Z,3.55
2023-05-15T14:25:32.490Z,3.88
2023-05-15T14:27:59.619Z,3.72
2023-05-15T14:30:27.054Z,3.70
2023-05-15T14:32:54.504Z,3.40
2023-05-15T14:35:22.799Z,4.10
2023-05-15T14:37:49.968Z,3.28
2023-05-15T14:40:18.357Z,3.40
2023-05-15T14:42:45.600Z,3.55
2023-05-15T14:45:12.816Z,3.38
2023-05-15T14:47:39.982Z,3.38
2023-05-15T14:50:07.413Z,3.33
2023-05-15T14:52:34.644Z,3.22
2023-05-15T14:57:32.551Z,3.72
2023-05-15T14:59:59.728Z,3.00
2023-05-15T15:02:26.944Z,4.00
2023-05-15T15:04:54.169Z,3.22
2023-05-15T15:07:21.405Z,3.10
2023-05-15T15:09:48.629Z,3.13
2023-05-15T15:12:15.827Z,3.58
2023-05-15T15:14:42.987Z,3.25
2023-05-15T15:17:10.209Z,3.17
2023-05-15T15:19:37.376Z,2.88
2023-05-15T15:22:04.557Z,3.03
2023-05-15T15:24:31.799Z,3.20
2023-05-15T15:26:58.949Z,3.05
2023-05-15T15:29:26.340Z,3.15
2023-05-15T15:31:53.656Z,3.05
2023-05-15T15:34:21.858Z,3.30
2023-05-15T15:36:49.074Z,2.75
2023-05-15T15:39:16.314Z,3.65
2023-05-15T15:41:43.458Z,3.25
2023-05-15T15:44:10.665Z,3.03
2023-05-15T15:46:37.801Z,3.13
2023-05-15T15:49:06.689Z,2.80
2023-05-15T15:51:34.144Z,2.92
2023-05-15T15:54:01.452Z,2.72
2023-05-15T15:56:28.685Z,3.10
2023-05-15T15:58:55.864Z,3.33
2023-05-15T16:01:23.682Z,3.50
2023-05-15T16:03:51.037Z,2.95
2023-05-15T16:06:18.219Z,2.60
2023-05-15T16:08:45.399Z,2.53
2023-05-15T16:11:13.136Z,3.15
2023-05-15T16:13:41.210Z,3.10
2023-05-15T16:16:08.543Z,2.75
2023-05-15T16:18:35.971Z,2.97
2023-05-15T16:21:03.799Z,2.55
2023-05-15T16:23:34.873Z,3.03
2023-05-15T16:26:02.356Z,3.08
2023-05-15T16:28:29.700Z,2.85
2023-05-15T16:30:57.221Z,2.88
2023-05-15T16:33:24.420Z,3.80
2023-05-15T16:35:54.875Z,3.38
2023-05-15T16:38:22.806Z,2.95
2023-05-15T16:40:50.347Z,2.85
2023-05-15T16:43:17.516Z,2.60
2023-05-15T16:45:44.733Z,3.20
2023-05-15T16:48:12.058Z,2.85
2023-05-15T16:50:39.430Z,3.03
2023-05-15T16:53:07.300Z,3.10
2023-05-15T16:55:34.933Z,3.15
2023-05-15T16:58:02.199Z,3.13
2023-05-15T17:00:29.435Z,3.13
2023-05-15T17:02:56.797Z,3.00
2023-05-15T17:05:24.002Z,3.10
2023-05-15T17:07:51.178Z,3.83
2023-05-15T17:10:18.341Z,2.53
2023-05-15T17:12:45.643Z,3.03
2023-05-15T17:15:13.516Z,3.97
2023-05-15T17:17:40.778Z,2.65
2023-05-15T17:20:08.271Z,3.30
2023-05-15T17:22:35.571Z,2.95
2023-05-15T17:25:02.807Z,3.25
2023-05-15T17:27:29.995Z,2.95
2023-05-15T17:29:57.585Z,3.22
2023-05-15T17:32:24.951Z,3.10
2023-05-15T17:34:52.202Z,3.25
2023-05-15T17:37:19.381Z,3.38
2023-05-15T17:39:46.613Z,4.07
2023-05-15T17:42:13.830Z,4.28
2023-05-15T17:44:41.156Z,4.35
2023-05-15T17:47:10.158Z,4.13
2023-05-15T17:49:37.926Z,4.30
2023-05-15T17:52:05.458Z,4.68
2023-05-15T17:54:32.730Z,6.63
2023-05-15T17:57:00.230Z,7.53
2023-05-15T17:59:27.740Z,7.65
2023-05-15T18:01:55.058Z,6.35
2023-05-15T18:04:22.304Z,7.10
2023-05-15T18:06:49.773Z,6.75
2023-05-15T18:09:17.076Z,7.47
2023-05-15T18:11:44.586Z,8.18
2023-05-15T18:14:11.794Z,7.72
2023-05-15T18:16:39.400Z,7.70
2023-05-15T18:19:07.286Z,7.95
2023-05-15T18:21:36.214Z,7.32
2023-05-15T18:24:04.969Z,7.70
2023-05-15T18:26:32.166Z,8.02
2023-05-15T18:28:59.349Z,7.28
2023-05-15T18:31:26.799Z,7.43
2023-05-15T18:33:54.392Z,7.28
2023-05-15T18:36:21.611Z,6.78
2023-05-15T18:38:48.817Z,7.10
2023-05-15T18:41:15.982Z,6.95
2023-05-15T18:43:43.154Z,6.63
2023-05-15T18:46:10.370Z,6.63
2023-05-15T18:48:37.580Z,6.82
2023-05-15T18:51:04.772Z,6.22
2023-05-15T18:53:32.125Z,6.15
2023-05-15T18:55:59.268Z,5.82
2023-05-15T18:58:26.479Z,6.47
2023-05-15T19:00:53.713Z,6.05
2023-05-15T19:03:21.131Z,6.28
2023-05-15T19:05:48.362Z,6.32
2023-05-15T19:08:15.581Z,6.00
2023-05-15T19:10:47.968Z,6.13
2023-05-15T19:13:15.269Z,5.95
2023-05-15T19:15:50.510Z,5.80
2023-05-15T19:18:18.130Z,6.75
2023-05-15T19:20:45.553Z,6.70
2023-05-15T19:23:13.075Z,7.20
2023-05-15T19:25:40.384Z,6.43
2023-05-15T19:28:08.336Z,5.70
2023-05-15T19:30:35.664Z,6.30
2023-05-15T19:33:03.059Z,6.43
2023-05-15T19:35:30.370Z,6.40
2023-05-15T19:37:57.596Z,6.03
2023-05-15T19:40:24.966Z,6.55
2023-05-15T19:42:52.349Z,7.30
2023-05-15T19:45:19.507Z,6.28
2023-05-15T19:47:46.709Z,5.82
2023-05-15T19:50:13.997Z,6.18
2023-05-15T19:52:42.868Z,5.75
2023-05-15T19:55:11.601Z,6.03
2023-05-15T19:57:44.746Z,5.53
2023-05-15T20:00:12.529Z,5.97
2023-05-15T20:02:41.295Z,10.40
2023-05-15T20:05:08.887Z,9.10
2023-05-15T20:07:36.826Z,8.43
2023-05-15T20:10:03.963Z,7.63
2023-05-15T20:12:31.253Z,6.65
2023-05-15T20:14:58.417Z,7.60
2023-05-15T20:17:25.686Z,8.13
2023-05-15T20:19:53.138Z,11.63
2023-05-15T20:22:20.377Z,9.43
2023-05-15T20:24:48.115Z,8.50
2023-05-15T20:27:15.343Z,7.60
2023-05-15T20:29:42.681Z,7.90
2023-05-15T20:32:09.998Z,7.57
2023-05-15T20:34:37.265Z,7.43
2023-05-15T20:37:04.468Z,7.25
2023-05-15T20:39:32.423Z,7.10
2023-05-15T20:41:59.574Z,7.45
2023-05-15T20:44:27.363Z,6.50
2023-05-15T20:46:54.518Z,6.82
2023-05-15T20:49:21.698Z,6.78
2023-05-15T20:51:48.990Z,7.57
2023-05-15T20:54:16.238Z,6.32
2023-05-15T20:56:43.392Z,6.65
2023-05-15T20:59:10.724Z,6.47
2023-05-15T21:01:38.078Z,5.80
2023-05-15T21:04:05.710Z,6.05
2023-05-15T21:06:32.931Z,5.50
2023-05-15T21:09:00.222Z,5.53
2023-05-15T21:11:27.580Z,6.57
2023-05-15T21:13:54.724Z,6.57
2023-05-15T21:16:22.090Z,6.15
2023-05-15T21:18:49.259Z,6.15
2023-05-15T21:21:16.705Z,5.60
2023-05-15T21:23:44.040Z,6.50
2023-05-15T21:26:11.281Z,6.72
2023-05-15T21:28:38.506Z,5.63
2023-05-15T21:31:09.193Z,4.90
2023-05-15T21:33:36.916Z,5.97
2023-05-15T21:36:07.125Z,6.07
2023-05-15T21:38:34.337Z,6.00
2023-05-15T21:41:01.612Z,5.65
2023-05-15T21:43:28.735Z,6.10
2023-05-15T21:45:56.109Z,5.10
2023-05-15T21:48:24.550Z,5.63
2023-05-15T21:50:52.837Z,6.40
2023-05-15T21:53:20.034Z,5.50
2023-05-15T21:55:48.260Z,5.93
2023-05-15T21:58:15.734Z,6.00
2023-05-15T22:00:42.866Z,6.47
2023-05-15T22:03:10.183Z,6.15
2023-05-15T22:05:37.481Z,6.35
2023-05-15T22:08:04.745Z,5.78
2023-05-15T22:10:31.987Z,6.35
2023-05-15T22:13:02.579Z,7.15
2023-05-15T22:15:30.085Z,5.75
2023-05-15T22:18:00.499Z,6.30
2023-05-15T22:20:28.958Z,7.55
2023-05-15T22:22:56.152Z,5.60
2023-05-15T22:25:23.381Z,6.90
2023-05-15T22:27:50.684Z,7.15
2023-05-15T22:30:17.968Z,6.15
2023-05-15T22:32:45.375Z,5.85
2023-05-15T22:35:13.172Z,5.97
2023-05-15T22:37:42.031Z,6.72
2023-05-15T22:40:10.548Z,6.40
2023-05-15T22:42:37.904Z,6.10
2023-05-15T22:45:06.012Z,5.93
2023-05-15T22:47:33.366Z,5.95
2023-05-15T22:50:03.767Z,5.60
2023-05-15T22:52:30.999Z,5.90
2023-05-15T22:54:58.142Z,6.00
2023-05-15T22:57:26.727Z,6.40
2023-05-15T22:59:54.133Z,6.13
2023-05-15T23:02:21.317Z,6.00
2023-05-15T23:04:48.894Z,6.10
2023-05-15T23:07:17.270Z,5.55
2023-05-15T23:09:44.429Z,5.57
2023-05-15T23:12:11.607Z,6.15
2023-05-15T23:14:38.831Z,5.65
2023-05-15T23:17:06.068Z,6.00
2023-05-15T23:19:33.335Z,5.32
2023-05-15T23:22:00.545Z,5.30
2023-05-15T23:24:27.682Z,5.35
2023-05-15T23:26:54.833Z,5.30
2023-05-15T23:29:22.048Z,6.50
2023-05-15T23:31:49.402Z,6.28
2023-05-15T23:34:17.192Z,5.30
2023-05-15T23:36:44.337Z,6.13
2023-05-15T23:39:11.771Z,5.03
2023-05-15T23:41:38.962Z,5.63
2023-05-15T23:44:06.444Z,5.75
2023-05-15T23:46:35.489Z,5.97
2023-05-15T23:49:02.678Z,5.40
2023-05-15T23:51:29.827Z,5.88
2023-05-15T23:53:56.977Z,5.22
2023-05-15T23:56:24.113Z,5.07
2023-05-15T23:58:51.287Z,5.07
